createdAt,value
2022-12-11T00:01:51.409Z,66.04
2022-12-11T00:04:21.922Z,66.23
2022-12-11T00:06:52.416Z,66.15
2022-12-11T00:09:23.715Z,66.22
2022-12-11T00:11:54.222Z,66.32
2022-12-11T00:14:24.748Z,66.18
2022-12-11T00:16:55.319Z,66.23
2022-12-11T00:19:26.193Z,66.44
2022-12-11T00:21:56.625Z,66.34
2022-12-11T00:24:27.114Z,66.40
2022-12-11T00:26:57.862Z,66.35
2022-12-11T00:29:28.356Z,66.42
2022-12-11T00:31:58.929Z,66.61
2022-12-11T00:34:29.974Z,66.75
2022-12-11T00:37:00.611Z,66.64
2022-12-11T00:39:31.027Z,66.53
2022-12-11T00:42:01.474Z,66.55
2022-12-11T00:44:32.002Z,66.48
2022-12-11T00:47:02.505Z,66.54
2022-12-11T00:49:33.269Z,66.55
2022-12-11T00:52:03.803Z,66.57
2022-12-11T00:54:34.890Z,66.68
2022-12-11T00:57:05.534Z,66.69
2022-12-11T00:59:36.109Z,66.86
2022-12-11T01:02:06.548Z,66.87
2022-12-11T01:04:39.112Z,66.98
2022-12-11T01:07:09.512Z,67.33
2022-12-11T01:09:57.422Z,67.39
2022-12-11T01:12:28.735Z,67.42
2022-12-11T01:14:59.250Z,67.23
2022-12-11T01:17:29.722Z,67.29
2022-12-11T01:20:00.157Z,67.20
2022-12-11T01:22:30.979Z,67.25
2022-12-11T01:25:01.402Z,67.49
2022-12-11T01:27:31.830Z,67.60
2022-12-11T01:30:02.327Z,67.31
2022-12-11T01:32:34.499Z,67.43
2022-12-11T01:35:05.741Z,67.58
2022-12-11T01:37:36.283Z,67.39
2022-12-11T01:40:09.192Z,67.33
2022-12-11T01:42:40.033Z,67.23
2022-12-11T01:45:32.003Z,67.27
2022-12-11T01:48:09.535Z,67.20
2022-12-11T01:50:45.127Z,67.33
2022-12-11T01:53:21.757Z,67.09
2022-12-11T01:55:56.163Z,67.05
2022-12-11T01:58:30.807Z,67.22
2022-12-11T02:01:02.094Z,67.23
2022-12-11T02:03:32.770Z,67.17
2022-12-11T02:06:03.535Z,67.05
2022-12-11T02:08:34.225Z,67.12
2022-12-11T02:11:13.657Z,66.99
2022-12-11T02:13:51.682Z,67.17
2022-12-11T02:16:27.344Z,67.16
2022-12-11T02:19:04.176Z,67.30
2022-12-11T02:21:40.368Z,67.51
2022-12-11T02:24:42.156Z,67.26
2022-12-11T02:27:24.894Z,67.32
2022-12-11T02:30:00.033Z,67.16
2022-12-11T02:32:36.967Z,67.22
2022-12-11T02:35:14.757Z,67.12
2022-12-11T02:37:49.182Z,67.23
2022-12-11T02:40:25.851Z,67.24
2022-12-11T02:42:59.190Z,67.16
2022-12-11T02:45:32.219Z,67.27
2022-12-11T02:48:06.613Z,67.26
2022-12-11T02:50:40.431Z,67.14
2022-12-11T02:53:13.875Z,67.14
2022-12-11T02:55:48.781Z,67.16
2022-12-11T02:58:23.280Z,67.09
2022-12-11T03:00:53.855Z,67.10
2022-12-11T03:03:24.414Z,67.27
2022-12-11T03:05:55.329Z,67.19
2022-12-11T03:08:26.328Z,67.28
2022-12-11T03:10:56.898Z,67.45
2022-12-11T03:13:27.406Z,67.43
2022-12-11T03:16:13.627Z,67.40
2022-12-11T03:18:52.225Z,67.57
2022-12-11T03:21:29.735Z,67.63
2022-12-11T03:24:08.047Z,67.45
2022-12-11T03:26:43.494Z,67.55
2022-12-11T03:29:21.057Z,67.66
2022-12-11T03:31:57.725Z,67.78
2022-12-11T03:34:32.484Z,67.81
2022-12-11T03:37:04.457Z,67.65
2022-12-11T03:39:38.902Z,67.80
2022-12-11T03:42:13.130Z,67.65
2022-12-11T03:44:48.692Z,67.56
2022-12-11T03:47:22.561Z,67.78
2022-12-11T03:49:55.981Z,67.68
2022-12-11T03:52:29.023Z,67.73
2022-12-11T03:55:02.943Z,67.90
2022-12-11T03:57:37.269Z,67.80
2022-12-11T04:00:12.231Z,67.97
2022-12-11T04:02:43.123Z,68.03
2022-12-11T04:05:14.588Z,68.02
2022-12-11T04:07:45.154Z,68.06
2022-12-11T04:10:15.890Z,68.11
2022-12-11T04:12:46.379Z,68.24
2022-12-11T04:15:17.087Z,68.10
2022-12-11T04:18:13.470Z,68.25
2022-12-11T04:21:01.353Z,68.37
2022-12-11T04:23:50.041Z,68.39
2022-12-11T04:26:21.927Z,68.11
2022-12-11T04:28:52.947Z,68.43
2022-12-11T04:31:25.247Z,68.26
2022-12-11T04:33:55.803Z,68.24
2022-12-11T04:36:26.255Z,68.07
2022-12-11T04:38:56.688Z,68.01
2022-12-11T04:41:27.176Z,68.19
2022-12-11T04:43:57.587Z,68.05
2022-12-11T04:46:28.037Z,67.86
2022-12-11T04:49:00.250Z,67.81
2022-12-11T04:51:31.028Z,67.78
2022-12-11T04:54:02.040Z,67.58
2022-12-11T04:56:32.487Z,67.65
2022-12-11T04:59:03.486Z,67.76
2022-12-11T05:01:33.999Z,67.53
2022-12-11T05:04:04.594Z,67.60
2022-12-11T05:06:35.054Z,67.71
2022-12-11T05:09:05.627Z,67.86
2022-12-11T05:11:37.354Z,67.54
2022-12-11T05:14:07.870Z,67.55
2022-12-11T05:16:38.433Z,67.51
2022-12-11T05:19:08.866Z,67.43
2022-12-11T05:21:39.323Z,67.50
2022-12-11T05:24:11.122Z,67.50
2022-12-11T05:26:41.549Z,67.47
2022-12-11T05:29:12.301Z,67.36
2022-12-11T05:31:42.833Z,67.35
2022-12-11T05:34:13.369Z,67.24
2022-12-11T05:36:43.823Z,67.25
2022-12-11T05:39:14.622Z,67.22
2022-12-11T05:41:45.165Z,67.24
2022-12-11T05:44:15.992Z,67.19
2022-12-11T05:46:46.480Z,67.03
2022-12-11T05:49:19.855Z,67.09
2022-12-11T05:51:50.763Z,67.18
2022-12-11T05:54:21.178Z,67.13
2022-12-11T05:56:52.231Z,67.07
2022-12-11T05:59:23.446Z,66.91
2022-12-11T06:01:53.957Z,66.94
2022-12-11T06:04:24.466Z,66.89
2022-12-11T06:06:56.298Z,66.90
2022-12-11T06:09:26.763Z,66.87
2022-12-11T06:11:57.177Z,66.91
2022-12-11T06:14:27.655Z,66.95
2022-12-11T06:16:58.093Z,66.97
2022-12-11T06:19:31.998Z,66.74
2022-12-11T06:22:07.063Z,66.71
2022-12-11T06:24:37.537Z,66.62
2022-12-11T06:27:09.156Z,66.63
2022-12-11T06:29:39.561Z,66.73
2022-12-11T06:32:10.503Z,66.68
2022-12-11T06:34:40.925Z,66.38
2022-12-11T06:37:11.843Z,66.51
2022-12-11T06:39:42.236Z,66.41
2022-12-11T06:42:13.453Z,66.53
2022-12-11T06:44:43.892Z,66.37
2022-12-11T06:47:14.642Z,66.40
2022-12-11T06:49:45.061Z,66.42
2022-12-11T06:52:18.569Z,66.27
2022-12-11T06:54:49.580Z,66.24
2022-12-11T06:57:20.458Z,66.19
2022-12-11T06:59:51.008Z,66.15
2022-12-11T07:02:22.385Z,66.02
2022-12-11T07:04:55.297Z,66.19
2022-12-11T07:07:26.013Z,66.15
2022-12-11T07:09:56.449Z,66.28
2022-12-11T07:12:26.887Z,66.46
2022-12-11T07:14:58.350Z,66.46
2022-12-11T07:17:29.458Z,66.58
2022-12-11T07:20:00.208Z,66.38
2022-12-11T07:22:31.033Z,66.33
2022-12-11T07:25:01.676Z,66.34
2022-12-11T07:27:32.178Z,66.35
2022-12-11T07:30:02.693Z,66.35
2022-12-11T07:32:33.194Z,66.24
2022-12-11T07:35:03.984Z,66.20
2022-12-11T07:37:34.410Z,66.26
2022-12-11T07:40:05.352Z,66.19
2022-12-11T07:42:35.882Z,66.18
2022-12-11T07:45:07.540Z,66.08
2022-12-11T07:47:38.002Z,66.04
2022-12-11T07:50:10.667Z,65.93
2022-12-11T07:52:41.115Z,65.89
2022-12-11T07:55:12.721Z,65.79
2022-12-11T07:57:43.367Z,65.59
2022-12-11T08:00:15.381Z,65.68
2022-12-11T08:02:45.892Z,65.53
2022-12-11T08:05:16.722Z,65.66
2022-12-11T08:07:47.249Z,65.48
2022-12-11T08:10:18.344Z,65.33
2022-12-11T08:12:48.749Z,65.48
2022-12-11T08:15:19.506Z,65.47
2022-12-11T08:17:49.953Z,65.63
2022-12-11T08:20:20.510Z,65.62
2022-12-11T08:22:55.922Z,65.61
2022-12-11T08:25:29.449Z,65.47
2022-12-11T08:27:59.896Z,65.65
2022-12-11T08:30:30.547Z,65.61
2022-12-11T08:33:01.428Z,65.63
2022-12-11T08:35:31.896Z,65.40
2022-12-11T08:38:02.384Z,65.37
2022-12-11T08:40:32.847Z,65.23
2022-12-11T08:43:03.302Z,65.07
2022-12-11T08:45:33.763Z,65.02
2022-12-11T08:48:04.913Z,64.73
2022-12-11T08:50:35.323Z,64.52
2022-12-11T08:53:06.639Z,64.21
2022-12-11T08:55:37.214Z,64.10
2022-12-11T08:58:07.723Z,64.08
2022-12-11T09:00:38.483Z,64.08
2022-12-11T09:03:12.971Z,64.01
2022-12-11T09:05:43.843Z,63.94
2022-12-11T09:08:14.603Z,63.73
2022-12-11T09:10:45.244Z,63.66
2022-12-11T09:13:16.059Z,63.61
2022-12-11T09:15:46.542Z,63.72
2022-12-11T09:18:17.011Z,63.64
2022-12-11T09:20:47.570Z,63.34
2022-12-11T09:23:18.035Z,63.35
2022-12-11T09:25:48.595Z,63.51
2022-12-11T09:28:20.102Z,63.39
2022-12-11T09:30:50.925Z,63.56
2022-12-11T09:33:21.413Z,63.54
2022-12-11T09:36:01.093Z,63.66
2022-12-11T09:38:33.298Z,63.76
2022-12-11T09:41:16.555Z,63.84
2022-12-11T09:43:51.788Z,63.91
2022-12-11T09:46:24.823Z,63.97
2022-12-11T09:48:55.960Z,63.81
2022-12-11T09:51:30.751Z,63.70
2022-12-11T09:54:04.690Z,63.66
2022-12-11T09:56:40.452Z,63.61
2022-12-11T09:59:22.935Z,63.60
2022-12-11T10:02:04.607Z,63.58
2022-12-11T10:04:44.414Z,63.70
2022-12-11T10:07:22.621Z,63.69
2022-12-11T10:09:59.686Z,63.78
2022-12-11T10:12:43.804Z,63.80
2022-12-11T10:15:32.640Z,63.95
2022-12-11T10:18:05.524Z,63.99
2022-12-11T10:20:39.489Z,63.97
2022-12-11T10:23:22.210Z,63.86
2022-12-11T10:25:58.281Z,63.80
2022-12-11T10:28:30.809Z,63.86
2022-12-11T10:31:11.130Z,63.63
2022-12-11T10:33:51.164Z,63.45
2022-12-11T10:36:26.878Z,63.22
2022-12-11T10:38:57.472Z,63.05
2022-12-11T10:41:37.954Z,63.19
2022-12-11T10:44:18.549Z,62.97
2022-12-11T10:46:50.795Z,62.74
2022-12-11T10:49:26.466Z,62.86
2022-12-11T10:51:57.959Z,62.77
2022-12-11T10:54:38.234Z,62.85
2022-12-11T10:57:11.328Z,62.82
2022-12-11T10:59:47.441Z,63.03
2022-12-11T11:02:26.558Z,63.06
2022-12-11T11:04:58.766Z,63.28
2022-12-11T11:07:30.921Z,63.42
2022-12-11T11:10:15.997Z,63.50
2022-12-11T11:12:48.889Z,63.41
2022-12-11T11:15:19.724Z,63.27
2022-12-11T11:17:55.701Z,63.03
2022-12-11T11:20:28.456Z,62.88
2022-12-11T11:23:01.138Z,62.79
2022-12-11T11:25:33.926Z,62.69
2022-12-11T11:28:07.449Z,62.84
2022-12-11T11:30:40.882Z,62.86
2022-12-11T11:33:18.833Z,62.96
2022-12-11T11:35:56.789Z,62.98
2022-12-11T11:38:31.099Z,62.86
2022-12-11T11:41:15.219Z,62.81
2022-12-11T11:43:49.211Z,62.79
2022-12-11T11:46:25.235Z,62.65
2022-12-11T11:49:06.244Z,62.70
2022-12-11T11:51:40.971Z,62.63
2022-12-11T11:54:21.715Z,62.70
2022-12-11T11:56:53.792Z,62.63
2022-12-11T11:59:29.154Z,62.77
2022-12-11T12:02:00.595Z,62.67
2022-12-11T12:04:34.931Z,62.65
2022-12-11T12:07:23.372Z,62.72
2022-12-11T12:10:00.511Z,62.81
2022-12-11T12:12:42.070Z,62.80
2022-12-11T12:15:21.993Z,62.99
2022-12-11T12:17:56.935Z,63.04
2022-12-11T12:20:35.754Z,63.24
2022-12-11T12:23:36.622Z,63.28
2022-12-11T12:26:16.792Z,63.25
2022-12-11T12:28:56.906Z,63.48
2022-12-11T12:31:56.520Z,63.56
2022-12-11T12:34:38.263Z,63.40
2022-12-11T12:37:18.558Z,63.49
2022-12-11T12:39:57.787Z,63.54
2022-12-11T12:42:39.725Z,63.55
2022-12-11T12:45:28.477Z,63.76
2022-12-11T12:47:59.085Z,63.83
2022-12-11T12:50:37.613Z,63.82
2022-12-11T12:53:12.525Z,63.78
2022-12-11T12:55:43.726Z,63.83
2022-12-11T12:58:32.027Z,63.85
2022-12-11T13:01:16.397Z,63.96
2022-12-11T13:03:58.433Z,63.94
2022-12-11T13:06:35.386Z,64.02
2022-12-11T13:09:20.429Z,63.89
2022-12-11T13:11:54.639Z,63.95
2022-12-11T13:14:31.889Z,63.91
2022-12-11T13:17:25.391Z,63.85
2022-12-11T13:20:15.293Z,64.00
2022-12-11T13:22:55.188Z,63.97
2022-12-11T13:25:29.760Z,63.74
2022-12-11T13:28:21.904Z,63.81
2022-12-11T13:31:06.110Z,63.75
2022-12-11T13:33:44.054Z,63.69
2022-12-11T13:36:35.062Z,63.57
2022-12-11T13:39:17.265Z,63.54
2022-12-11T13:41:51.523Z,63.57
2022-12-11T13:44:25.921Z,63.65
2022-12-11T13:46:59.440Z,63.65
2022-12-11T13:49:35.169Z,63.57
2022-12-11T13:52:07.930Z,63.70
2022-12-11T13:54:37.547Z,63.61
2022-12-11T13:57:20.922Z,63.51
2022-12-11T13:59:53.735Z,63.40
2022-12-11T14:02:29.213Z,63.39
2022-12-11T14:05:04.833Z,63.33
2022-12-11T14:07:39.416Z,63.60
2022-12-11T14:10:17.211Z,63.63
2022-12-11T14:12:54.573Z,63.77
2022-12-11T14:15:26.023Z,64.06
2022-12-11T14:17:57.835Z,64.16
2022-12-11T14:20:31.130Z,64.14
2022-12-11T14:23:09.555Z,64.06
2022-12-11T14:25:39.991Z,64.16
2022-12-11T14:28:18.472Z,64.04
2022-12-11T14:30:51.460Z,63.91
2022-12-11T14:33:26.151Z,64.02
2022-12-11T14:35:58.206Z,63.88
2022-12-11T14:38:35.094Z,63.76
2022-12-11T14:41:14.279Z,63.65
2022-12-11T14:43:49.349Z,63.80
2022-12-11T14:46:23.581Z,63.80
2022-12-11T14:49:01.603Z,63.75
2022-12-11T14:51:36.147Z,63.93
2022-12-11T14:54:08.760Z,63.58
2022-12-11T14:56:39.965Z,63.59
2022-12-11T14:59:26.979Z,63.52
2022-12-11T15:02:19.557Z,63.35
2022-12-11T15:05:03.517Z,63.54
2022-12-11T15:07:35.028Z,63.69
2022-12-11T15:10:07.924Z,63.68
2022-12-11T15:12:46.702Z,63.60
2022-12-11T15:15:19.476Z,63.57
2022-12-11T15:17:52.878Z,63.64
2022-12-11T15:20:30.681Z,63.65
2022-12-11T15:23:03.361Z,63.79
2022-12-11T15:25:32.666Z,63.91
2022-12-11T15:28:03.761Z,64.06
2022-12-11T15:30:36.359Z,64.19
2022-12-11T15:33:22.058Z,64.22
2022-12-11T15:36:02.533Z,64.22
2022-12-11T15:38:40.608Z,64.20
2022-12-11T15:41:14.780Z,64.30
2022-12-11T15:43:46.341Z,64.31
2022-12-11T15:46:16.817Z,64.18
2022-12-11T15:48:48.584Z,64.20
2022-12-11T15:51:19.434Z,64.24
2022-12-11T15:53:49.962Z,64.02
2022-12-11T15:56:20.782Z,63.92
2022-12-11T15:58:52.045Z,63.81
2022-12-11T16:01:22.620Z,63.85
2022-12-11T16:03:53.105Z,63.61
2022-12-11T16:06:23.619Z,63.60
2022-12-11T16:08:54.055Z,63.47
2022-12-11T16:11:24.484Z,63.29
2022-12-11T16:13:55.207Z,63.33
2022-12-11T16:16:25.784Z,63.43
2022-12-11T16:18:56.322Z,63.26
2022-12-11T16:21:26.816Z,63.46
2022-12-11T16:23:57.344Z,63.34
2022-12-11T16:26:27.854Z,63.35
2022-12-11T16:28:58.292Z,63.32
2022-12-11T16:31:29.065Z,63.48
2022-12-11T16:33:59.534Z,63.54
2022-12-11T16:36:30.011Z,63.67
2022-12-11T16:39:00.556Z,63.75
2022-12-11T16:41:31.109Z,63.83
2022-12-11T16:44:04.024Z,63.92
2022-12-11T16:46:34.602Z,63.84
2022-12-11T16:49:05.406Z,64.15
2022-12-11T16:51:35.874Z,64.03
2022-12-11T16:54:07.079Z,64.16
2022-12-11T16:56:37.623Z,64.16
2022-12-11T16:59:08.749Z,64.20
2022-12-11T17:01:39.866Z,64.23
2022-12-11T17:04:10.931Z,64.14
2022-12-11T17:06:41.567Z,64.28
2022-12-11T17:09:12.103Z,64.17
2022-12-11T17:11:42.633Z,64.07
2022-12-11T17:14:13.190Z,63.94
2022-12-11T17:16:43.685Z,64.07
2022-12-11T17:19:14.196Z,64.11
2022-12-11T17:21:49.974Z,64.00
2022-12-11T17:24:22.868Z,64.06
2022-12-11T17:26:53.878Z,64.16
2022-12-11T17:29:24.430Z,64.09
2022-12-11T17:31:55.062Z,64.17
2022-12-11T17:34:25.546Z,64.31
2022-12-11T17:36:55.941Z,64.27
2022-12-11T17:39:26.413Z,64.41
2022-12-11T17:41:56.862Z,64.50
2022-12-11T17:44:30.473Z,64.57
2022-12-11T17:47:06.060Z,64.67
2022-12-11T17:49:40.359Z,64.85
2022-12-11T17:52:11.061Z,64.78
2022-12-11T17:54:41.855Z,64.80
2022-12-11T17:57:12.444Z,64.87
2022-12-11T17:59:42.928Z,65.13
2022-12-11T18:02:13.574Z,65.35
2022-12-11T18:04:44.063Z,65.40
2022-12-11T18:07:14.545Z,65.57
2022-12-11T18:09:46.100Z,65.84
2022-12-11T18:12:16.754Z,66.02
2022-12-11T18:14:47.278Z,66.02
2022-12-11T18:17:17.751Z,66.21
2022-12-11T18:19:48.166Z,66.25
2022-12-11T18:22:19.582Z,66.43
2022-12-11T18:24:50.031Z,66.68
2022-12-11T18:27:20.468Z,66.67
2022-12-11T18:29:50.937Z,66.94
2022-12-11T18:32:21.430Z,66.90
2022-12-11T18:34:51.961Z,67.11
2022-12-11T18:37:27.739Z,67.23
2022-12-11T18:39:58.623Z,67.36
2022-12-11T18:42:33.028Z,67.47
2022-12-11T18:45:04.180Z,67.52
2022-12-11T18:47:34.711Z,67.66
2022-12-11T18:50:07.918Z,67.84
2022-12-11T18:52:39.048Z,67.95
2022-12-11T18:55:10.765Z,68.12
2022-12-11T18:57:41.552Z,68.18
2022-12-11T19:00:14.510Z,68.15
2022-12-11T19:02:44.930Z,68.19
2022-12-11T19:05:15.785Z,68.10
2022-12-11T19:07:46.293Z,68.14
2022-12-11T19:10:16.815Z,68.24
2022-12-11T19:12:47.280Z,68.23
2022-12-11T19:15:23.387Z,68.27
2022-12-11T19:17:54.388Z,68.38
2022-12-11T19:20:48.019Z,68.49
2022-12-11T19:23:15.612Z,68.41
2022-12-11T19:25:48.087Z,68.40
2022-12-11T19:28:19.142Z,68.39
2022-12-11T19:30:50.609Z,68.29
2022-12-11T19:33:21.123Z,68.39
2022-12-11T19:36:00.886Z,68.51
2022-12-11T19:38:31.369Z,68.39
2022-12-11T19:41:05.614Z,68.54
2022-12-11T19:43:36.705Z,68.84
2022-12-11T19:46:08.889Z,68.88
2022-12-11T19:48:41.425Z,68.92
2022-12-11T19:51:14.375Z,69.01
2022-12-11T19:53:46.530Z,69.04
2022-12-11T19:56:18.084Z,69.01
2022-12-11T19:58:49.959Z,68.93
2022-12-11T20:01:26.513Z,69.07
2022-12-11T20:03:59.567Z,69.05
2022-12-11T20:06:32.508Z,69.19
2022-12-11T20:09:04.141Z,69.32
2022-12-11T20:11:35.945Z,69.50
2022-12-11T20:14:06.501Z,69.47
2022-12-11T20:17:09.368Z,69.50
2022-12-11T20:19:27.891Z,69.63
2022-12-11T20:21:58.959Z,69.58
2022-12-11T20:24:29.874Z,69.77
2022-12-11T20:27:00.293Z,69.83
2022-12-11T20:29:31.953Z,69.88
2022-12-11T20:32:02.549Z,69.94
2022-12-11T20:34:33.526Z,70.04
2022-12-11T20:37:04.241Z,69.93
2022-12-11T20:39:35.653Z,69.91
2022-12-11T20:42:06.784Z,69.99
2022-12-11T20:44:37.198Z,69.94
2022-12-11T20:47:07.915Z,69.95
2022-12-11T20:49:38.544Z,70.00
2022-12-11T20:52:09.195Z,69.98
2022-12-11T20:54:39.815Z,70.00
2022-12-11T20:57:11.156Z,69.98
2022-12-11T20:59:41.799Z,69.79
2022-12-11T21:02:13.763Z,69.78
2022-12-11T21:04:44.375Z,69.79
2022-12-11T21:07:14.875Z,69.68
2022-12-11T21:09:45.391Z,69.74
2022-12-11T21:12:15.874Z,69.68
2022-12-11T21:14:46.273Z,69.82
2022-12-11T21:17:16.680Z,69.96
2022-12-11T21:19:47.156Z,70.02
2022-12-11T21:22:17.829Z,70.30
2022-12-11T21:24:48.319Z,70.28
2022-12-11T21:27:18.797Z,70.33
2022-12-11T21:29:49.583Z,70.40
2022-12-11T21:32:21.957Z,70.36
2022-12-11T21:34:55.466Z,70.37
2022-12-11T21:37:25.930Z,70.64
2022-12-11T21:40:00.310Z,70.74
2022-12-11T21:42:30.938Z,70.70
2022-12-11T21:47:51.992Z,70.94
2022-12-11T21:50:22.420Z,70.83
2022-12-11T21:52:53.561Z,70.82
2022-12-11T21:55:24.067Z,71.06
2022-12-11T21:57:56.526Z,71.25
2022-12-11T22:00:28.299Z,71.36
2022-12-11T22:02:58.747Z,71.49
2022-12-11T22:05:29.259Z,71.69
2022-12-11T22:07:59.710Z,71.85
2022-12-11T22:10:30.617Z,71.91
2022-12-11T22:13:01.074Z,72.05
2022-12-11T22:15:31.596Z,71.95
2022-12-11T22:18:02.033Z,72.13
2022-12-11T22:20:32.520Z,72.15
2022-12-11T22:23:03.642Z,72.13
2022-12-11T22:25:34.077Z,72.24
2022-12-11T22:28:05.344Z,72.37
2022-12-11T22:30:35.915Z,72.40
2022-12-11T22:33:06.958Z,72.45
2022-12-11T22:35:37.397Z,72.55
2022-12-11T22:38:08.167Z,72.64
2022-12-11T22:40:42.493Z,72.94
2022-12-11T22:43:12.925Z,72.94
2022-12-11T22:45:43.403Z,72.99
2022-12-11T22:48:13.875Z,73.03
2022-12-11T22:50:44.504Z,73.19
2022-12-11T22:53:15.157Z,73.12
2022-12-11T22:55:45.882Z,73.12
2022-12-11T22:58:21.613Z,73.18
2022-12-11T23:00:52.451Z,73.07
2022-12-11T23:03:22.963Z,73.48
2022-12-11T23:05:53.538Z,73.49
2022-12-11T23:08:26.405Z,73.58
2022-12-11T23:10:56.981Z,73.35
2022-12-11T23:13:27.486Z,73.55
2022-12-11T23:15:57.957Z,73.60
2022-12-11T23:18:28.440Z,73.48
2022-12-11T23:20:58.914Z,73.42
2022-12-11T23:23:29.810Z,73.45
2022-12-11T23:26:00.688Z,73.57
2022-12-11T23:28:31.129Z,73.54
2022-12-11T23:31:01.657Z,73.68
2022-12-11T23:33:32.261Z,73.70
2022-12-11T23:36:03.060Z,73.63
2022-12-11T23:38:34.038Z,73.56
2022-12-11T23:41:05.672Z,73.50
2022-12-11T23:43:37.228Z,73.49
2022-12-11T23:46:12.834Z,73.53
2022-12-11T23:48:43.842Z,73.58
2022-12-11T23:51:17.416Z,73.64
2022-12-11T23:53:48.694Z,73.50
2022-12-11T23:56:22.026Z,73.33
2022-12-11T23:58:52.889Z,73.31
